Time;durP1;ratioP1;P1;durP2;ratioP2;P2;SDS_P1;SDS_P2;PMS_P1;PMS_P2;Temp;Humidity;BMP_temperature;BMP_pressure;BME280_temperature;BME280_humidity;BME280_pressure;Samples;Min_cycle;Max_cycle;Signal;HPM_P1;HPM_P2
2021/10/31 00:01:28;;;;;;;6.10;3.17;;;;;21.60;100604.00;;;;5110359;28;20046;-77
2021/10/31 00:03:57;;;;;;;3.90;3.45;;;;;21.60;100597.00;;;;5109856;28;20083;-77
2021/10/31 00:06:27;;;;;;;10.27;2.92;;;;;21.60;100604.00;;;;5109678;28;20047;-76
2021/10/31 00:08:56;;;;;;;7.43;3.20;;;;;21.40;100609.00;;;;5109296;28;20170;-77
2021/10/31 00:11:26;;;;;;;6.70;3.20;;;;;21.40;100605.00;;;;5109647;28;20043;-77
2021/10/31 00:13:55;;;;;;;5.88;3.22;;;;;21.20;100613.00;;;;5109726;28;20054;-77
2021/10/31 00:16:25;;;;;;;14.90;4.90;;;;;21.20;100608.00;;;;5109154;28;20140;-77
2021/10/31 00:18:54;;;;;;;8.27;3.67;;;;;21.10;100605.00;;;;5109003;28;20468;-77
2021/10/31 00:21:25;;;;;;;3.80;3.50;;;;;21.10;100617.00;;;;5109507;28;20047;-77
2021/10/31 00:23:55;;;;;;;6.53;3.42;;;;;21.10;100611.00;;;;5108654;28;20036;-77
2021/10/31 00:26:26;;;;;;;12.50;3.80;;;;;21.10;100608.00;;;;5109499;28;20549;-76
2021/10/31 00:28:56;;;;;;;11.57;3.88;;;;;21.00;100624.00;;;;5109295;28;20380;-76
2021/10/31 00:31:26;;;;;;;9.07;3.55;;;;;21.10;100630.00;;;;5108913;28;20123;-76
2021/10/31 00:33:55;;;;;;;23.77;5.47;;;;;21.10;100628.00;;;;5090840;28;20075;-76
2021/10/31 00:36:25;;;;;;;8.60;4.35;;;;;21.20;100628.00;;;;5108879;28;20046;-76
2021/10/31 00:38:54;;;;;;;8.48;3.90;;;;;21.20;100642.00;;;;5109172;28;20047;-75
2021/10/31 00:41:24;;;;;;;7.60;3.72;;;;;21.30;100641.00;;;;5108116;28;20051;-76
2021/10/31 00:43:53;;;;;;;17.23;5.45;;;;;21.10;100629.00;;;;5108713;28;20499;-76
2021/10/31 00:46:23;;;;;;;4.97;3.63;;;;;21.00;100636.00;;;;5109196;28;20040;-76
2021/10/31 00:48:52;;;;;;;10.05;3.47;;;;;21.00;100633.00;;;;5108636;28;20043;-76
2021/10/31 00:51:24;;;;;;;3.78;3.38;;;;;20.90;100641.00;;;;5109090;28;20054;-76
2021/10/31 00:53:56;;;;;;;5.70;3.55;;;;;21.00;100649.00;;;;5107889;28;20043;-75
2021/10/31 00:56:27;;;;;;;4.47;3.60;;;;;21.00;100631.00;;;;5107548;28;20043;-75
2021/10/31 00:58:57;;;;;;;5.22;3.63;;;;;20.90;100637.00;;;;5107830;28;20093;-76
2021/10/31 01:01:28;;;;;;;9.48;7.47;;;;;21.10;100635.00;;;;5108059;28;20055;-76
2021/10/31 01:03:59;;;;;;;8.45;4.60;;;;;21.00;100641.00;;;;5108291;28;20044;-76
2021/10/31 01:06:37;;;;;;;4.10;3.70;;;;;20.90;100639.00;;;;5108198;28;20320;-77
2021/10/31 01:09:42;;;;;;;6.18;3.65;;;;;20.80;100636.00;;;;5108195;28;20058;-76
2021/10/31 01:12:39;;;;;;;8.05;3.38;;;;;20.90;100646.00;;;;5107526;28;20039;-77
2021/10/31 01:15:36;;;;;;;4.05;3.60;;;;;20.90;100647.00;;;;5109326;28;20490;-77
2021/10/31 01:18:24;;;;;;;4.15;3.50;;;;;21.40;100646.00;;;;5108008;28;20046;-76
2021/10/31 01:21:05;;;;;;;6.30;3.40;;;;;21.20;100645.00;;;;5108539;28;20073;-76
2021/10/31 01:23:56;;;;;;;5.05;3.45;;;;;21.40;100648.00;;;;5107690;28;20441;-76
2021/10/31 01:26:32;;;;;;;3.50;3.20;;;;;21.40;100649.00;;;;5107832;28;20040;-77
2021/10/31 01:29:46;;;;;;;4.47;3.35;;;;;21.30;100636.00;;;;5108546;28;20044;-76
2021/10/31 01:32:34;;;;;;;3.55;3.10;;;;;21.20;100655.00;;;;5072021;28;20056;-76
2021/10/31 01:35:40;;;;;;;3.30;3.00;;;;;21.10;100647.00;;;;5108290;28;20732;-76
2021/10/31 01:38:29;;;;;;;3.75;2.97;;;;;21.20;100650.00;;;;5107777;28;20050;-77
2021/10/31 01:41:13;;;;;;;4.72;3.55;;;;;21.10;100642.00;;;;5107759;28;20088;-78
2021/10/31 01:44:05;;;;;;;4.30;3.38;;;;;21.00;100635.00;;;;5106452;28;20039;-75
2021/10/31 01:46:46;;;;;;;5.53;3.20;;;;;20.90;100635.00;;;;5108005;28;20043;-75
2021/10/31 01:50:03;;;;;;;8.00;3.30;;;;;20.70;100641.00;;;;5106986;28;20455;-77
2021/10/31 01:52:38;;;;;;;8.45;3.78;;;;;20.70;100635.00;;;;5035461;28;20101;-76
2021/10/31 01:55:20;;;;;;;6.00;3.78;;;;;20.80;100648.00;;;;5107152;28;20035;-76
2021/10/31 01:57:55;;;;;;;4.70;3.25;;;;;20.80;100650.00;;;;5107179;28;20050;-76
2021/10/31 02:00:30;;;;;;;8.73;3.05;;;;;20.70;100650.00;;;;5107422;28;20510;-76
2021/10/31 02:03:02;;;;;;;8.73;3.38;;;;;20.80;100649.00;;;;5089863;28;20055;-76
2021/10/31 02:05:36;;;;;;;4.32;3.20;;;;;20.70;100636.00;;;;5107891;28;20430;-76
2021/10/31 02:08:10;;;;;;;4.97;3.60;;;;;20.70;100647.00;;;;5107459;28;20047;-76
2021/10/31 02:10:43;;;;;;;9.13;4.10;;;;;20.50;100645.00;;;;5107640;28;20047;-76
2021/10/31 02:13:14;;;;;;;10.68;3.70;;;;;20.40;100644.00;;;;5107542;28;20042;-76
2021/10/31 02:15:48;;;;;;;8.60;3.47;;;;;20.50;100655.00;;;;5072900;28;20083;-76
2021/10/31 02:18:21;;;;;;;7.80;3.63;;;;;20.50;100662.00;;;;5106921;28;20494;-75
2021/10/31 02:20:55;;;;;;;3.60;3.30;;;;;20.40;100659.00;;;;5107130;28;20058;-75
2021/10/31 02:23:25;;;;;;;4.10;3.60;;;;;20.40;100653.00;;;;5107144;28;20050;-76
2021/10/31 02:25:55;;;;;;;11.13;3.67;;;;;20.20;100665.00;;;;5107221;28;20058;-76
2021/10/31 02:28:26;;;;;;;4.13;3.58;;;;;20.10;100660.00;;;;5107306;28;20600;-76
2021/10/31 02:30:55;;;;;;;5.10;3.60;;;;;20.10;100654.00;;;;5107499;28;20040;-76
2021/10/31 02:33:25;;;;;;;8.98;3.53;;;;;20.10;100656.00;;;;5107422;28;20073;-76
2021/10/31 02:35:55;;;;;;;4.85;3.95;;;;;20.10;100658.00;;;;5107454;28;20050;-76
2021/10/31 02:38:25;;;;;;;4.75;3.85;;;;;20.00;100653.00;;;;5107286;28;20145;-76
2021/10/31 02:40:54;;;;;;;4.93;3.35;;;;;20.10;100653.00;;;;5106686;28;20047;-76
2021/10/31 02:43:24;;;;;;;4.00;3.60;;;;;20.20;100642.00;;;;5107114;28;20043;-77
2021/10/31 02:45:54;;;;;;;4.50;3.95;;;;;20.20;100648.00;;;;5107112;28;20047;-76
2021/10/31 02:48:24;;;;;;;6.90;3.88;;;;;20.20;100632.00;;;;5106683;28;20071;-75
2021/10/31 02:51:23;;;;;;;4.18;3.70;;;;;20.20;100638.00;;;;5106956;28;20062;-74
2021/10/31 02:54:09;;;;;;;4.85;3.42;;;;;20.40;100627.00;;;;5076496;28;20131;-75
2021/10/31 02:56:50;;;;;;;5.55;3.15;;;;;20.30;100630.00;;;;5107153;28;20036;-75
2021/10/31 02:59:29;;;;;;;4.67;3.80;;;;;20.10;100604.00;;;;5106679;28;20043;-76
2021/10/31 03:01:59;;;;;;;6.28;3.72;;;;;20.10;100623.00;;;;5106968;28;20093;-76
2021/10/31 03:04:30;;;;;;;4.68;3.55;;;;;20.10;100617.00;;;;5107895;28;20069;-76
2021/10/31 03:07:01;;;;;;;3.10;2.90;;;;;20.20;100631.00;;;;5110870;28;20066;-75
2021/10/31 03:09:32;;;;;;;4.13;3.40;;;;;20.30;100616.00;;;;5111166;28;20127;-76
2021/10/31 03:12:03;;;;;;;4.13;3.47;;;;;20.40;100609.00;;;;5110984;28;20975;-76
2021/10/31 03:14:34;;;;;;;5.18;3.13;;;;;20.40;100623.00;;;;5092271;28;20060;-75
2021/10/31 03:17:06;;;;;;;4.65;3.22;;;;;20.50;100617.00;;;;5111018;28;20050;-76
2021/10/31 03:19:37;;;;;;;3.83;3.53;;;;;20.40;100607.00;;;;5110849;28;20391;-76
2021/10/31 03:22:07;;;;;;;3.70;3.13;;;;;20.40;100611.00;;;;5111254;28;20047;-76
2021/10/31 03:24:37;;;;;;;5.00;2.80;;;;;20.60;100610.00;;;;5110633;28;20780;-75
2021/10/31 03:27:07;;;;;;;4.25;2.70;;;;;20.80;100605.00;;;;5110191;28;20046;-75
2021/10/31 03:29:37;;;;;;;5.80;2.35;;;;;20.70;100591.00;;;;5110707;28;20047;-76
2021/10/31 03:32:07;;;;;;;3.63;3.33;;;;;20.70;100587.00;;;;5110634;28;20494;-76
2021/10/31 03:34:36;;;;;;;8.30;3.17;;;;;20.60;100594.00;;;;5110213;28;20071;-76
2021/10/31 03:37:06;;;;;;;3.00;2.80;;;;;20.60;100608.00;;;;5110677;28;20609;-76
2021/10/31 03:39:35;;;;;;;4.70;3.05;;;;;20.60;100597.00;;;;5092194;28;20043;-76
2021/10/31 03:42:05;;;;;;;4.78;3.03;;;;;20.40;100592.00;;;;5110315;28;20050;-76
2021/10/31 03:44:37;;;;;;;4.15;2.90;;;;;20.30;100603.00;;;;5109977;28;20048;-75
2021/10/31 03:47:09;;;;;;;2.88;2.67;;;;;20.30;100599.00;;;;5110902;28;20582;-75
2021/10/31 03:49:39;;;;;;;3.10;2.90;;;;;20.20;100597.00;;;;5110008;28;20560;-76
2021/10/31 03:52:09;;;;;;;8.13;3.25;;;;;20.10;100594.00;;;;5109528;28;20035;-76
2021/10/31 03:54:39;;;;;;;3.75;3.20;;;;;20.00;100590.00;;;;5110066;28;20532;-75
2021/10/31 03:57:08;;;;;;;6.95;3.05;;;;;20.00;100588.00;;;;5109576;28;20031;-75
2021/10/31 03:59:38;;;;;;;13.82;3.30;;;;;19.90;100581.00;;;;5109772;28;20498;-75
2021/10/31 04:02:07;;;;;;;6.22;3.78;;;;;19.80;100582.00;;;;5109491;28;20053;-76
2021/10/31 04:04:37;;;;;;;6.78;3.50;;;;;19.80;100580.00;;;;5109733;28;20047;-75
2021/10/31 04:07:06;;;;;;;11.05;3.72;;;;;19.80;100581.00;;;;5109447;28;20108;-75
2021/10/31 04:09:36;;;;;;;7.75;3.72;;;;;19.80;100579.00;;;;5110118;28;20039;-76
2021/10/31 04:12:06;;;;;;;6.38;3.50;;;;;19.80;100591.00;;;;5091448;28;20048;-75
2021/10/31 04:14:36;;;;;;;5.13;3.40;;;;;19.70;100593.00;;;;5109472;28;20051;-75
2021/10/31 04:17:05;;;;;;;7.50;3.53;;;;;19.60;100598.00;;;;5108213;28;20088;-76
2021/10/31 04:19:35;;;;;;;3.80;3.25;;;;;19.60;100605.00;;;;5091519;28;20043;-76
2021/10/31 04:22:04;;;;;;;4.00;3.60;;;;;19.60;100594.00;;;;5109253;28;20502;-75
2021/10/31 04:24:34;;;;;;;4.05;3.63;;;;;19.50;100587.00;;;;5109185;28;20082;-76
2021/10/31 04:27:04;;;;;;;4.97;3.90;;;;;19.40;100583.00;;;;5109467;28;20043;-76
2021/10/31 04:29:34;;;;;;;5.22;4.07;;;;;19.30;100586.00;;;;5109151;28;20043;-75
2021/10/31 04:32:05;;;;;;;3.90;3.60;;;;;19.40;100586.00;;;;5109283;28;20046;-75
2021/10/31 04:34:35;;;;;;;3.97;3.65;;;;;19.40;100592.00;;;;5109506;28;20043;-76
2021/10/31 04:37:04;;;;;;;6.10;3.63;;;;;19.40;100589.00;;;;5108735;28;20043;-76
2021/10/31 04:39:34;;;;;;;3.60;3.30;;;;;19.30;100573.00;;;;5109311;28;20047;-75
2021/10/31 04:42:04;;;;;;;4.00;3.50;;;;;19.20;100565.00;;;;5109391;28;20101;-75
2021/10/31 04:44:34;;;;;;;5.38;3.40;;;;;19.20;100580.00;;;;5109045;28;20085;-76
2021/10/31 04:47:05;;;;;;;5.05;3.30;;;;;19.20;100574.00;;;;5109210;28;20079;-75
2021/10/31 04:49:35;;;;;;;7.40;3.60;;;;;19.20;100569.00;;;;5108701;28;20765;-75
2021/10/31 04:52:05;;;;;;;3.83;3.53;;;;;19.20;100556.00;;;;5108631;28;20070;-75
2021/10/31 04:54:34;;;;;;;3.88;3.58;;;;;19.20;100575.00;;;;5108524;28;20550;-75
2021/10/31 04:57:04;;;;;;;4.25;3.70;;;;;19.10;100559.00;;;;5108449;28;20494;-75
2021/10/31 04:59:34;;;;;;;7.90;3.60;;;;;19.10;100568.00;;;;5108535;28;20055;-75
2021/10/31 05:02:04;;;;;;;5.55;3.72;;;;;19.00;100572.00;;;;5108565;28;20044;-75
2021/10/31 05:04:33;;;;;;;4.47;3.63;;;;;18.90;100586.00;;;;5108936;28;20178;-75
2021/10/31 05:07:04;;;;;;;4.15;3.75;;;;;18.90;100574.00;;;;5108033;28;20044;-75
2021/10/31 05:09:37;;;;;;;5.80;3.42;;;;;19.00;100571.00;;;;5108901;28;20047;-75
2021/10/31 05:12:07;;;;;;;3.97;3.67;;;;;19.10;100582.00;;;;5108275;28;20040;-75
2021/10/31 05:14:36;;;;;;;4.20;3.80;;;;;19.00;100594.00;;;;5090003;28;20093;-76
2021/10/31 05:17:06;;;;;;;3.53;3.22;;;;;19.00;100591.00;;;;5107875;28;20062;-75
2021/10/31 05:19:36;;;;;;;5.40;3.70;;;;;18.90;100583.00;;;;5108070;28;20044;-75
2021/10/31 05:22:05;;;;;;;8.50;4.32;;;;;18.90;100592.00;;;;5107830;28;20050;-75
2021/10/31 05:24:34;;;;;;;5.13;3.55;;;;;18.90;100577.00;;;;5108387;28;20047;-75
2021/10/31 05:27:04;;;;;;;4.30;4.00;;;;;18.80;100592.00;;;;5107740;28;20124;-76
2021/10/31 05:29:34;;;;;;;5.75;4.20;;;;;18.80;100599.00;;;;5107957;28;20078;-76
2021/10/31 05:32:04;;;;;;;4.70;3.88;;;;;18.80;100581.00;;;;5107727;28;20096;-75
2021/10/31 05:34:33;;;;;;;5.57;4.15;;;;;18.90;100595.00;;;;5107614;28;20525;-76
2021/10/31 05:37:03;;;;;;;4.43;4.03;;;;;18.90;100582.00;;;;5090104;28;20039;-75
2021/10/31 05:39:33;;;;;;;5.07;3.72;;;;;19.00;100576.00;;;;5107867;28;20036;-76
2021/10/31 05:42:02;;;;;;;4.13;3.80;;;;;19.00;100587.00;;;;5107626;28;20043;-75
2021/10/31 05:44:32;;;;;;;7.32;4.20;;;;;18.90;100578.00;;;;5107510;28;20070;-75
2021/10/31 05:47:01;;;;;;;12.27;4.20;;;;;18.90;100586.00;;;;5107358;28;20104;-75
2021/10/31 05:49:31;;;;;;;6.93;3.83;;;;;19.00;100583.00;;;;5107791;28;20047;-75
2021/10/31 05:52:01;;;;;;;12.43;4.50;;;;;18.90;100573.00;;;;5108088;28;20052;-75
2021/10/31 05:54:30;;;;;;;10.13;4.07;;;;;18.90;100581.00;;;;5089863;28;20055;-76
2021/10/31 05:57:01;;;;;;;6.03;4.00;;;;;18.90;100577.00;;;;5107796;28;20039;-75
2021/10/31 05:59:34;;;;;;;8.18;4.25;;;;;18.90;100592.00;;;;5107806;28;20058;-75
2021/10/31 06:02:08;;;;;;;3.97;3.58;;;;;18.80;100593.00;;;;5089149;28;20387;-75
2021/10/31 06:04:40;;;;;;;12.07;3.45;;;;;18.80;100591.00;;;;5108514;28;20044;-76
2021/10/31 06:07:10;;;;;;;5.38;4.20;;;;;18.70;100593.00;;;;5107168;28;20067;-75
2021/10/31 06:09:40;;;;;;;7.15;4.00;;;;;18.70;100586.00;;;;5107008;28;20052;-75
2021/10/31 06:12:10;;;;;;;5.53;4.60;;;;;18.70;100591.00;;;;5107644;28;20441;-75
2021/10/31 06:14:40;;;;;;;6.57;4.28;;;;;18.60;100592.00;;;;5107805;28;20055;-75
2021/10/31 06:17:09;;;;;;;8.38;4.15;;;;;18.60;100574.00;;;;5089410;28;20043;-76
2021/10/31 06:19:39;;;;;;;5.15;4.43;;;;;18.50;100566.00;;;;5107149;28;20054;-76
2021/10/31 06:22:09;;;;;;;5.43;4.07;;;;;18.50;100591.00;;;;5107154;28;20521;-75
2021/10/31 06:24:39;;;;;;;4.57;4.10;;;;;18.40;100599.00;;;;5107932;28;20047;-76
2021/10/31 06:27:08;;;;;;;5.55;4.30;;;;;18.40;100588.00;;;;5107301;28;20044;-76
2021/10/31 06:29:38;;;;;;;4.72;4.32;;;;;18.40;100591.00;;;;5088872;28;20507;-75
2021/10/31 06:32:08;;;;;;;5.50;3.83;;;;;18.40;100594.00;;;;5107086;28;20396;-76
2021/10/31 06:34:37;;;;;;;4.95;4.07;;;;;18.40;100593.00;;;;5107032;28;20058;-76
2021/10/31 06:37:07;;;;;;;4.97;3.97;;;;;18.40;100599.00;;;;5089654;28;20088;-75
2021/10/31 06:39:36;;;;;;;5.32;4.30;;;;;18.30;100591.00;;;;5089970;28;20391;-75
2021/10/31 06:42:06;;;;;;;6.82;4.60;;;;;18.30;100598.00;;;;5111294;28;20039;-75
2021/10/31 06:44:35;;;;;;;5.28;4.22;;;;;18.30;100591.00;;;;5111262;28;20043;-75
2021/10/31 06:47:05;;;;;;;4.57;4.25;;;;;18.40;100603.00;;;;5110897;28;20040;-75
2021/10/31 06:49:37;;;;;;;4.43;4.03;;;;;18.40;100594.00;;;;5111076;28;20058;-75
2021/10/31 06:52:07;;;;;;;7.88;4.80;;;;;18.40;100587.00;;;;5111412;28;20422;-75
2021/10/31 06:54:37;;;;;;;4.68;4.05;;;;;18.30;100602.00;;;;5111445;28;20035;-75
2021/10/31 06:57:06;;;;;;;4.35;4.05;;;;;18.30;100607.00;;;;5111298;28;20498;-75
2021/10/31 06:59:36;;;;;;;5.55;4.13;;;;;18.30;100602.00;;;;5110735;28;20046;-75
2021/10/31 07:02:05;;;;;;;5.90;4.85;;;;;18.30;100595.00;;;;5111384;28;20055;-76
2021/10/31 07:04:35;;;;;;;4.57;4.18;;;;;18.30;100610.00;;;;5110761;28;20091;-75
2021/10/31 07:07:04;;;;;;;5.55;4.10;;;;;18.30;100605.00;;;;5110816;28;20044;-76
2021/10/31 07:09:34;;;;;;;5.40;4.47;;;;;18.30;100614.00;;;;5110695;28;20040;-75
2021/10/31 07:12:03;;;;;;;5.55;4.60;;;;;18.20;100605.00;;;;5110672;28;20051;-75
2021/10/31 07:14:33;;;;;;;5.32;4.50;;;;;18.20;100613.00;;;;5110635;28;20051;-75
2021/10/31 07:17:03;;;;;;;4.90;4.50;;;;;18.20;100611.00;;;;5093036;28;20052;-75
2021/10/31 07:19:32;;;;;;;8.52;4.93;;;;;18.20;100612.00;;;;5111379;28;20051;-74
2021/10/31 07:22:02;;;;;;;7.47;4.90;;;;;18.30;100612.00;;;;5111373;28;20044;-75
2021/10/31 07:24:32;;;;;;;5.00;4.60;;;;;18.30;100611.00;;;;5110623;28;20055;-76
2021/10/31 07:27:01;;;;;;;7.65;4.90;;;;;18.30;100622.00;;;;5092025;28;20035;-76
2021/10/31 07:29:31;;;;;;;5.72;4.65;;;;;18.30;100612.00;;;;5110560;28;20055;-76
2021/10/31 07:32:01;;;;;;;4.82;4.40;;;;;18.20;100631.00;;;;5110127;28;20058;-75
2021/10/31 07:34:31;;;;;;;7.23;5.20;;;;;18.20;100618.00;;;;5110234;28;20101;-75
2021/10/31 07:37:00;;;;;;;4.75;4.28;;;;;18.30;100633.00;;;;5110500;28;20070;-76
2021/10/31 07:39:30;;;;;;;6.05;4.68;;;;;18.30;100618.00;;;;5110175;28;20044;-75
2021/10/31 07:42:00;;;;;;;5.20;4.70;;;;;18.30;100634.00;;;;5110608;28;20054;-75
2021/10/31 07:44:30;;;;;;;4.72;4.32;;;;;18.30;100628.00;;;;5110122;28;20039;-75
2021/10/31 07:46:59;;;;;;;4.82;4.43;;;;;18.40;100644.00;;;;5109882;28;20054;-76
2021/10/31 07:49:29;;;;;;;6.22;5.07;;;;;18.60;100640.00;;;;5110354;28;20040;-75
2021/10/31 07:51:58;;;;;;;6.47;4.90;;;;;18.50;100636.00;;;;5110083;28;20051;-76
2021/10/31 07:54:28;;;;;;;4.95;4.50;;;;;18.40;100642.00;;;;5110130;28;20043;-76
2021/10/31 07:57:00;;;;;;;6.72;4.60;;;;;18.40;100649.00;;;;5110039;28;20406;-75
2021/10/31 07:59:30;;;;;;;5.68;5.18;;;;;18.40;100647.00;;;;5109706;28;20104;-76
2021/10/31 08:01:59;;;;;;;5.93;4.80;;;;;18.50;100654.00;;;;5110054;28;20044;-76
2021/10/31 08:04:29;;;;;;;7.57;4.63;;;;;18.60;100661.00;;;;5110309;28;20046;-76
2021/10/31 08:06:59;;;;;;;5.32;4.93;;;;;18.50;100655.00;;;;5109608;28;20544;-76
2021/10/31 08:09:28;;;;;;;5.32;4.72;;;;;18.40;100671.00;;;;5109756;28;20047;-75
2021/10/31 08:11:58;;;;;;;5.07;4.53;;;;;18.20;100666.00;;;;5109503;28;20494;-76
2021/10/31 08:14:28;;;;;;;5.70;4.93;;;;;18.10;100671.00;;;;5091013;28;20105;-75
2021/10/31 08:16:57;;;;;;;6.25;4.90;;;;;18.10;100663.00;;;;5110851;28;20053;-75
2021/10/31 08:19:27;;;;;;;5.40;4.90;;;;;17.90;100683.00;;;;5091649;28;20040;-76
2021/10/31 08:21:56;;;;;;;5.30;4.80;;;;;17.90;100663.00;;;;5109057;28;20108;-76
2021/10/31 08:24:26;;;;;;;9.68;4.97;;;;;17.80;100682.00;;;;5109442;28;20043;-75
2021/10/31 08:26:55;;;;;;;5.75;5.13;;;;;17.80;100665.00;;;;5109393;28;20057;-76
2021/10/31 08:29:25;;;;;;;6.22;5.22;;;;;17.70;100679.00;;;;5109350;28;20057;-76
2021/10/31 08:31:55;;;;;;;5.88;5.28;;;;;17.70;100677.00;;;;5109241;28;20152;-76
2021/10/31 08:34:25;;;;;;;5.97;5.47;;;;;17.70;100677.00;;;;5109462;28;20081;-76
2021/10/31 08:36:56;;;;;;;6.40;5.45;;;;;17.70;100679.00;;;;5109497;28;20047;-76
2021/10/31 08:39:26;;;;;;;5.90;5.30;;;;;17.70;100674.00;;;;5109332;28;20099;-76
2021/10/31 08:41:56;;;;;;;7.65;5.50;;;;;17.70;100667.00;;;;5108761;28;20047;-76
2021/10/31 08:44:26;;;;;;;7.25;5.68;;;;;17.70;100683.00;;;;5109137;28;20051;-76
2021/10/31 08:46:56;;;;;;;9.25;5.38;;;;;17.70;100684.00;;;;5109373;28;20047;-76
2021/10/31 08:49:25;;;;;;;10.07;5.53;;;;;17.70;100671.00;;;;5108758;28;20043;-76
2021/10/31 08:51:54;;;;;;;6.22;5.63;;;;;17.70;100684.00;;;;5109920;28;20081;-76
2021/10/31 08:54:24;;;;;;;5.93;5.30;;;;;17.70;100678.00;;;;5108619;28;20047;-76
2021/10/31 08:56:53;;;;;;;6.32;5.60;;;;;17.80;100689.00;;;;5108619;28;20105;-76
2021/10/31 08:59:22;;;;;;;7.53;5.43;;;;;17.90;100695.00;;;;5090503;28;20055;-76
2021/10/31 09:01:52;;;;;;;6.53;5.40;;;;;17.90;100700.00;;;;5108291;28;20084;-76
2021/10/31 09:04:21;;;;;;;5.72;5.13;;;;;17.90;100706.00;;;;5108317;28;20071;-76
2021/10/31 09:06:51;;;;;;;6.07;5.15;;;;;17.90;100717.00;;;;5108358;28;20039;-76
2021/10/31 09:09:20;;;;;;;5.68;5.05;;;;;18.00;100721.00;;;;5108090;28;20396;-76
2021/10/31 09:11:50;;;;;;;5.57;4.47;;;;;18.10;100705.00;;;;5108471;28;20077;-76
2021/10/31 09:14:20;;;;;;;10.75;4.80;;;;;18.30;100731.00;;;;5090914;28;20054;-76
2021/10/31 09:16:49;;;;;;;6.65;4.80;;;;;18.50;100712.00;;;;5108819;28;20052;-76
2021/10/31 09:19:19;;;;;;;5.32;4.82;;;;;18.60;100726.00;;;;5108166;28;20178;-75
2021/10/31 09:21:49;;;;;;;6.80;4.80;;;;;18.70;100716.00;;;;5090623;28;20501;-76
2021/10/31 09:24:18;;;;;;;5.05;4.55;;;;;18.70;100724.00;;;;5108225;28;20039;-75
2021/10/31 09:26:47;;;;;;;10.52;4.50;;;;;18.90;100723.00;;;;5108160;28;20085;-76
2021/10/31 09:29:17;;;;;;;5.32;4.43;;;;;19.00;100726.00;;;;5108007;28;20055;-76
2021/10/31 09:31:47;;;;;;;7.13;4.07;;;;;19.10;100736.00;;;;5107731;28;20035;-76
2021/10/31 09:34:17;;;;;;;5.35;3.83;;;;;19.20;100731.00;;;;5107721;28;20048;-75
2021/10/31 09:36:48;;;;;;;4.80;4.10;;;;;19.20;100732.00;;;;5108250;28;20036;-76
2021/10/31 09:39:18;;;;;;;4.90;3.97;;;;;19.20;100745.00;;;;5108196;28;20050;-76
2021/10/31 09:41:50;;;;;;;4.47;4.07;;;;;19.40;100726.00;;;;5107584;28;20044;-76
2021/10/31 09:44:34;;;;;;;9.48;3.55;;;;;19.70;100715.00;;;;5107841;28;20120;-76
2021/10/31 09:47:04;;;;;;;5.50;3.67;;;;;20.00;100737.00;;;;5107867;28;20031;-76
2021/10/31 09:49:37;;;;;;;5.75;3.63;;;;;20.10;100728.00;;;;5107717;28;20075;-76
2021/10/31 09:52:07;;;;;;;8.65;3.50;;;;;20.60;100717.00;;;;5107175;28;20043;-76
2021/10/31 09:54:36;;;;;;;6.75;3.10;;;;;21.80;100638.00;;;;5107406;28;20043;-76
2021/10/31 09:57:06;;;;;;;5.43;3.28;;;;;23.40;100642.00;;;;5107201;28;20494;-76
2021/10/31 09:59:40;;;;;;;3.60;2.53;;;;;25.10;100616.00;;;;5107495;28;20040;-76
2021/10/31 10:02:14;;;;;;;5.20;2.72;;;;;23.40;100571.00;;;;5108244;28;20043;-77
2021/10/31 10:04:53;;;;;;;2.15;1.95;;;;;27.30;100623.00;;;;5107360;28;20169;-76
2021/10/31 10:07:23;;;;;;;4.15;2.38;;;;;26.40;100465.00;;;;5107374;28;20485;-76
2021/10/31 10:09:55;;;;;;;4.15;1.90;;;;;28.10;100659.00;;;;5107445;28;20047;-76
2021/10/31 10:12:28;;;;;;;4.50;1.92;;;;;29.80;100447.00;;;;5107553;28;20123;-76
2021/10/31 10:15:07;;;;;;;5.22;2.13;;;;;29.20;100650.00;;;;5106553;28;20673;-74
2021/10/31 10:17:53;;;;;;;5.07;1.88;;;;;31.00;100481.00;;;;5106764;28;20039;-75
2021/10/31 10:20:23;;;;;;;2.72;1.60;;;;;31.10;100452.00;;;;5107644;28;20046;-75
2021/10/31 10:23:11;;;;;;;4.28;1.75;;;;;32.90;100466.00;;;;5107303;28;20230;-75
2021/10/31 10:25:42;;;;;;;9.18;1.90;;;;;32.40;100489.00;;;;5107155;28;20402;-75
2021/10/31 10:28:27;;;;;;;3.90;1.30;;;;;33.70;100500.00;;;;5107879;28;20055;-75
2021/10/31 10:31:24;;;;;;;8.13;1.40;;;;;34.10;100558.00;;;;5106668;28;20039;-74
2021/10/31 10:33:54;;;;;;;5.45;1.52;;;;;31.20;100524.00;;;;5088814;28;20047;-76
2021/10/31 10:36:24;;;;;;;12.15;1.90;;;;;30.10;100603.00;;;;5088456;28;20097;-76
2021/10/31 10:39:07;;;;;;;;;;;;;30.60;100488.00;;;;5107964;28;20127;-74
2021/10/31 10:41:41;;;;;;;3.72;1.83;;;;;31.50;100498.00;;;;5106996;28;19992;-76
2021/10/31 10:44:25;;;;;;;4.95;1.75;;;;;32.90;100521.00;;;;5107234;28;20421;-75
2021/10/31 10:47:11;;;;;;;6.25;1.77;;;;;32.90;100512.00;;;;5107277;28;20097;-75
2021/10/31 10:49:44;;;;;;;6.68;1.80;;;;;33.90;100486.00;;;;5107060;28;20207;-75
2021/10/31 10:52:29;;;;;;;4.35;1.20;;;;;34.40;100491.00;;;;5106982;28;20059;-75
2021/10/31 10:55:04;;;;;;;6.40;1.52;;;;;34.10;100491.00;;;;5107060;28;20047;-76
2021/10/31 10:57:58;;;;;;;3.00;1.40;;;;;32.90;100480.00;;;;5106932;28;20071;-78
2021/10/31 11:00:34;;;;;;;1.95;1.10;;;;;32.50;100485.00;;;;5106818;28;20044;-76
2021/10/31 11:03:08;;;;;;;1.95;1.13;;;;;33.60;100482.00;;;;5106843;28;20035;-78
2021/10/31 11:05:46;;;;;;;2.22;1.20;;;;;33.90;100479.00;;;;5107012;28;20577;-77
2021/10/31 11:08:19;;;;;;;4.70;1.20;;;;;34.40;100481.00;;;;5106640;28;20094;-77
2021/10/31 11:11:02;;;;;;;1.83;0.98;;;;;34.70;100484.00;;;;5106526;28;20126;-77
2021/10/31 11:13:44;;;;;;;5.90;1.20;;;;;33.90;100494.00;;;;5106603;28;20463;-77
2021/10/31 11:16:14;;;;;;;8.57;1.23;;;;;35.00;100507.00;;;;5106774;28;20052;-76
2021/10/31 11:18:45;;;;;;;3.78;1.10;;;;;34.60;100531.00;;;;5107020;28;20134;-76
2021/10/31 11:21:14;;;;;;;10.10;1.23;;;;;34.50;100545.00;;;;5106851;28;20080;-76
2021/10/31 11:23:46;;;;;;;3.70;1.15;;;;;34.20;100544.00;;;;5107243;28;20043;-77
2021/10/31 11:26:23;;;;;;;2.13;1.08;;;;;33.70;100533.00;;;;5108701;28;20047;-76
2021/10/31 11:28:54;;;;;;;2.25;1.10;;;;;33.70;100521.00;;;;5110602;28;20057;-77
2021/10/31 11:31:23;;;;;;;6.05;1.00;;;;;33.30;100530.00;;;;5110122;28;20066;-76
2021/10/31 11:33:53;;;;;;;5.90;1.13;;;;;32.10;100530.00;;;;5092531;28;20567;-77
2021/10/31 11:36:23;;;;;;;1.85;0.82;;;;;31.90;100541.00;;;;5110684;28;20058;-76
2021/10/31 11:38:53;;;;;;;1.38;0.90;;;;;31.10;100554.00;;;;5091517;28;20044;-76
2021/10/31 11:41:28;;;;;;;;;;;;;31.40;100574.00;;;;5111085;28;20047;-75
2021/10/31 11:43:57;;;;;;;4.88;1.48;;;;;30.80;100704.00;;;;5109977;28;19931;-74
2021/10/31 11:46:41;;;;;;;2.67;0.90;;;;;30.10;100704.00;;;;5110319;28;20054;-76
2021/10/31 11:49:12;;;;;;;2.28;0.95;;;;;29.40;100705.00;;;;5110000;28;20068;-76
2021/10/31 11:51:48;;;;;;;3.45;1.30;;;;;29.50;100700.00;;;;5109284;28;20059;-75
2021/10/31 11:54:19;;;;;;;3.65;1.30;;;;;29.80;100699.00;;;;5110006;28;20143;-78
2021/10/31 11:56:52;;;;;;;2.70;1.23;;;;;30.20;100705.00;;;;5110136;28;20047;-78
2021/10/31 11:59:22;;;;;;;1.95;0.90;;;;;30.10;100699.00;;;;5110019;28;20039;-78
2021/10/31 12:01:59;;;;;;;5.25;1.20;;;;;30.30;100690.00;;;;5109611;28;20048;-77
2021/10/31 12:04:54;;;;;;;2.97;1.15;;;;;30.00;100698.00;;;;5092465;28;20058;-77
2021/10/31 12:07:41;;;;;;;3.88;1.10;;;;;30.50;100699.00;;;;5109259;28;20056;-76
2021/10/31 12:10:50;;;;;;;5.68;1.20;;;;;30.80;100687.00;;;;5110439;28;20062;-78
2021/10/31 12:13:24;;;;;;;7.10;2.42;;;;;30.10;100697.00;;;;5085304;28;20466;-76
2021/10/31 12:16:12;;;;;;;3.97;2.10;;;;;29.70;100689.00;;;;5109685;28;20044;-76
2021/10/31 12:18:50;;;;;;;2.40;1.08;;;;;30.40;100685.00;;;;5109850;28;20039;-76
2021/10/31 12:21:30;;;;;;;2.05;1.13;;;;;30.50;100674.00;;;;5109276;28;20046;-76
2021/10/31 12:24:02;;;;;;;1.95;0.77;;;;;30.00;100672.00;;;;5109448;28;20043;-78
2021/10/31 12:26:55;;;;;;;1.38;0.80;;;;;29.60;100678.00;;;;5108746;28;20050;-79
2021/10/31 12:29:28;;;;;;;3.65;0.90;;;;;30.40;100677.00;;;;5109499;28;20040;-77
2021/10/31 12:32:00;;;;;;;0.63;0.63;;;;;29.50;100670.00;;;;5109397;28;20041;-78
2021/10/31 12:34:39;;;;;;;4.97;1.20;;;;;30.00;100670.00;;;;5109073;28;20050;-76
2021/10/31 12:37:22;;;;;;;2.97;1.20;;;;;30.30;100674.00;;;;5108680;28;20055;-77